Time;durP1;ratioP1;P1;durP2;ratioP2;P2;SDS_P1;SDS_P2;PMS_P1;PMS_P2;Temp;Humidity;BMP_temperature;BMP_pressure;BME280_temperature;BME280_humidity;BME280_pressure;Samples;Min_cycle;Max_cycle;Signal;HPM_P1;HPM_P2
2023/10/08 00:01:44;;;;;;;11.63;4.60;;;;;;;;;;5092287;28;20455;-59
2023/10/08 00:04:12;;;;;;;6.83;4.53;;;;;;;;;;5092707;28;20535;-57
2023/10/08 00:06:39;;;;;;;5.27;3.13;;;;;;;;;;5091962;28;20449;-57
2023/10/08 00:09:08;;;;;;;7.03;3.40;;;;;;;;;;5092413;28;20528;-57
2023/10/08 00:11:37;;;;;;;8.10;3.40;;;;;;;;;;5092100;28;20443;-56
2023/10/08 00:14:09;;;;;;;9.77;3.30;;;;;;;;;;5092507;28;21003;-57
2023/10/08 00:16:39;;;;;;;4.93;3.30;;;;;;;;;;5091922;28;20448;-56
2023/10/08 00:19:09;;;;;;;6.17;3.50;;;;;;;;;;5090859;28;20443;-57
2023/10/08 00:21:38;;;;;;;9.10;2.77;;;;;;;;;;5090248;28;20451;-56
2023/10/08 00:24:07;;;;;;;7.60;3.17;;;;;;;;;;5090695;28;20938;-58
2023/10/08 00:26:39;;;;;;;5.20;3.23;;;;;;;;;;5090723;28;20486;-56
2023/10/08 00:29:15;;;;;;;6.17;3.53;;;;;;;;;;5090751;28;20737;-58
2023/10/08 00:31:44;;;;;;;10.50;3.23;;;;;;;;;;5090872;28;20439;-57
2023/10/08 00:34:13;;;;;;;9.10;3.67;;;;;;;;;;5091566;28;20454;-55
2023/10/08 00:36:42;;;;;;;5.10;3.00;;;;;;;;;;5089544;28;20439;-56
2023/10/08 00:39:13;;;;;;;4.70;2.63;;;;;;;;;;5079200;28;20538;-59
2023/10/08 00:41:42;;;;;;;7.03;3.07;;;;;;;;;;5091413;28;20523;-56
2023/10/08 00:44:13;;;;;;;7.70;3.57;;;;;;;;;;5091545;28;20443;-58
2023/10/08 00:46:47;;;;;;;3.90;2.73;;;;;;;;;;5091508;28;20551;-57
2023/10/08 00:52:18;;;;;;;4.37;2.77;;;;;;;;;;5087179;28;20442;-56
2023/10/08 00:54:54;;;;;;;8.93;3.27;;;;;;;;;;5090133;28;20973;-56
2023/10/08 00:57:25;;;;;;;6.17;3.10;;;;;;;;;;5089864;28;20458;-56
2023/10/08 00:59:54;;;;;;;6.43;3.30;;;;;;;;;;5089974;28;20531;-59
2023/10/08 01:02:25;;;;;;;7.67;3.70;;;;;;;;;;5089689;28;20439;-57
2023/10/08 01:04:54;;;;;;;7.00;3.50;;;;;;;;;;5083662;28;20467;-56
2023/10/08 01:07:21;;;;;;;5.90;3.03;;;;;;;;;;5091539;28;20475;-57
2023/10/08 01:09:50;;;;;;;8.37;3.10;;;;;;;;;;5089337;28;20843;-59
2023/10/08 01:12:21;;;;;;;8.27;3.73;;;;;;;;;;5091129;28;20509;-56
2023/10/08 01:14:53;;;;;;;5.30;2.97;;;;;;;;;;5091250;28;20468;-56
2023/10/08 01:17:25;;;;;;;8.10;3.50;;;;;;;;;;5088942;28;20546;-56
2023/10/08 01:19:56;;;;;;;6.70;3.30;;;;;;;;;;5091546;28;20439;-58
2023/10/08 01:22:28;;;;;;;6.00;3.63;;;;;;;;;;5091129;28;20447;-59
2023/10/08 01:24:57;;;;;;;7.17;3.50;;;;;;;;;;5090873;28;20467;-57
2023/10/08 01:27:24;;;;;;;7.27;3.77;;;;;;;;;;5091020;28;20447;-56
2023/10/08 01:29:52;;;;;;;6.20;3.77;;;;;;;;;;5090643;28;20480;-58
2023/10/08 01:32:20;;;;;;;7.20;3.57;;;;;;;;;;5090544;28;20523;-56
2023/10/08 01:34:48;;;;;;;6.57;4.20;;;;;;;;;;5090622;28;20464;-57
2023/10/08 01:37:17;;;;;;;5.33;3.10;;;;;;;;;;5091173;28;20439;-58
2023/10/08 01:39:46;;;;;;;4.43;3.10;;;;;;;;;;5090267;28;20836;-57
2023/10/08 01:42:17;;;;;;;5.93;2.90;;;;;;;;;;5090858;28;20463;-57
2023/10/08 01:44:47;;;;;;;5.20;3.20;;;;;;;;;;5083777;28;20531;-59
2023/10/08 01:47:16;;;;;;;6.23;3.47;;;;;;;;;;5090234;28;20814;-56
2023/10/08 01:49:44;;;;;;;5.17;3.30;;;;;;;;;;5090730;28;20483;-56
2023/10/08 01:52:18;;;;;;;5.97;3.43;;;;;;;;;;5090428;28;20534;-58
2023/10/08 01:54:47;;;;;;;8.43;4.00;;;;;;;;;;5090622;28;20467;-57
2023/10/08 01:57:14;;;;;;;6.50;4.00;;;;;;;;;;5090520;28;20549;-53
2023/10/08 01:59:42;;;;;;;8.57;3.80;;;;;;;;;;5090394;28;20439;-57
2023/10/08 02:02:10;;;;;;;5.93;3.47;;;;;;;;;;5090494;28;20505;-56
2023/10/08 02:04:37;;;;;;;7.90;3.60;;;;;;;;;;5090307;28;20543;-57
2023/10/08 02:07:07;;;;;;;6.77;3.50;;;;;;;;;;5090572;28;20516;-58
2023/10/08 02:09:34;;;;;;;6.93;3.07;;;;;;;;;;5090332;28;20475;-57
2023/10/08 02:12:03;;;;;;;6.50;3.60;;;;;;;;;;5090074;28;20493;-58
2023/10/08 02:14:31;;;;;;;6.13;3.60;;;;;;;;;;5089928;28;20517;-56
2023/10/08 02:17:01;;;;;;;9.87;3.53;;;;;;;;;;5090238;28;20543;-57
2023/10/08 02:19:28;;;;;;;6.30;3.20;;;;;;;;;;5089896;28;20914;-58
2023/10/08 02:21:56;;;;;;;8.70;3.47;;;;;;;;;;5090106;28;20489;-56
2023/10/08 02:24:24;;;;;;;6.13;2.83;;;;;;;;;;5090115;28;20919;-57
2023/10/08 02:26:52;;;;;;;5.80;3.00;;;;;;;;;;5084896;28;20544;-56
2023/10/08 02:29:21;;;;;;;8.83;3.70;;;;;;;;;;5075191;28;20557;-55
2023/10/08 02:31:49;;;;;;;7.87;3.63;;;;;;;;;;5094056;28;20865;-58
2023/10/08 02:34:16;;;;;;;4.60;2.83;;;;;;;;;;5094671;28;20492;-56
2023/10/08 02:36:43;;;;;;;9.47;4.43;;;;;;;;;;5094075;28;20580;-57
2023/10/08 02:39:21;;;;;;;7.17;3.33;;;;;;;;;;5094063;28;20508;-57
2023/10/08 02:41:48;;;;;;;6.77;2.80;;;;;;;;;;5094157;28;20453;-57
2023/10/08 02:44:16;;;;;;;5.47;3.20;;;;;;;;;;5094266;28;20527;-57
2023/10/08 02:46:47;;;;;;;6.53;3.30;;;;;;;;;;5093190;28;20967;-56
2023/10/08 02:49:19;;;;;;;5.20;3.60;;;;;;;;;;5094030;28;20478;-56
2023/10/08 02:51:46;;;;;;;9.20;4.13;;;;;;;;;;5093844;28;20934;-57
2023/10/08 02:54:17;;;;;;;5.67;3.30;;;;;;;;;;5093721;28;20918;-58
2023/10/08 02:56:45;;;;;;;11.13;5.30;;;;;;;;;;5094032;28;20452;-57
2023/10/08 02:59:13;;;;;;;6.00;4.40;;;;;;;;;;5093704;28;21022;-57
2023/10/08 03:01:41;;;;;;;6.20;3.70;;;;;;;;;;5093112;28;20538;-57
2023/10/08 03:04:17;;;;;;;6.27;3.77;;;;;;;;;;5092740;28;20473;-58
2023/10/08 03:06:45;;;;;;;11.80;3.70;;;;;;;;;;5094104;28;20474;-57
2023/10/08 03:09:13;;;;;;;6.40;3.20;;;;;;;;;;5093672;28;20559;-56
2023/10/08 03:11:47;;;;;;;9.80;4.07;;;;;;;;;;5091643;28;20452;-57
2023/10/08 03:14:21;;;;;;;7.90;3.90;;;;;;;;;;5093834;28;20486;-56
2023/10/08 03:16:49;;;;;;;8.10;3.87;;;;;;;;;;5086429;28;20590;-57
2023/10/08 03:19:19;;;;;;;7.70;3.50;;;;;;;;;;5088749;28;20821;-60
2023/10/08 03:21:51;;;;;;;8.90;3.70;;;;;;;;;;5092928;28;20946;-59
2023/10/08 03:24:36;;;;;;;6.30;3.03;;;;;;;;;;5089456;28;20462;-60
2023/10/08 03:27:07;;;;;;;6.27;2.90;;;;;;;;;;5087933;28;20465;-57
2023/10/08 03:29:40;;;;;;;6.80;2.87;;;;;;;;;;5092765;28;20559;-59
2023/10/08 03:32:13;;;;;;;6.90;3.93;;;;;;;;;;5092012;28;20455;-58
2023/10/08 03:34:43;;;;;;;7.37;2.90;;;;;;;;;;5091253;28;20478;-56
2023/10/08 03:37:19;;;;;;;7.93;4.27;;;;;;;;;;5086832;28;20463;-57
2023/10/08 03:39:52;;;;;;;9.57;4.87;;;;;;;;;;5092445;28;20937;-57
2023/10/08 03:42:29;;;;;;;7.53;3.60;;;;;;;;;;5089988;28;20452;-58
2023/10/08 03:44:57;;;;;;;9.60;3.70;;;;;;;;;;5093103;28;20463;-56
2023/10/08 03:47:26;;;;;;;6.27;3.30;;;;;;;;;;5092335;28;20444;-57
2023/10/08 03:49:55;;;;;;;7.57;3.43;;;;;;;;;;5086215;28;20869;-56
2023/10/08 03:52:25;;;;;;;5.87;3.63;;;;;;;;;;5089497;28;20455;-58
2023/10/08 03:55:05;;;;;;;6.93;3.83;;;;;;;;;;5088038;28;20463;-58
2023/10/08 03:57:42;;;;;;;9.20;3.43;;;;;;;;;;5084150;28;20833;-58
2023/10/08 04:00:13;;;;;;;9.33;3.60;;;;;;;;;;5087397;28;20448;-58
2023/10/08 04:02:41;;;;;;;7.27;4.20;;;;;;;;;;5084416;28;20448;-57
2023/10/08 04:05:19;;;;;;;6.10;3.27;;;;;;;;;;5092400;28;20464;-59
2023/10/08 04:11:07;;;;;;;6.40;3.20;;;;;;;;;;5091638;28;20989;-57
2023/10/08 04:13:38;;;;;;;5.50;3.60;;;;;;;;;;5092291;28;20462;-57
2023/10/08 04:16:06;;;;;;;7.20;3.57;;;;;;;;;;5092354;28;20476;-56
2023/10/08 04:18:40;;;;;;;11.53;4.27;;;;;;;;;;5092558;28;20881;-57
2023/10/08 04:21:12;;;;;;;7.10;2.90;;;;;;;;;;5092376;28;20469;-57
2023/10/08 04:23:40;;;;;;;6.00;3.30;;;;;;;;;;5092120;28;20451;-58
2023/10/08 04:26:08;;;;;;;6.50;3.50;;;;;;;;;;5092263;28;20464;-58
2023/10/08 04:28:37;;;;;;;6.50;3.23;;;;;;;;;;5091966;28;20471;-59
2023/10/08 04:31:15;;;;;;;7.70;3.80;;;;;;;;;;5091928;28;21005;-57
2023/10/08 04:33:44;;;;;;;4.67;2.87;;;;;;;;;;5092095;28;20471;-58
2023/10/08 04:36:18;;;;;;;7.77;3.63;;;;;;;;;;5090669;28;20474;-57
2023/10/08 04:38:47;;;;;;;6.60;3.40;;;;;;;;;;5090568;28;20448;-59
2023/10/08 04:41:18;;;;;;;6.37;3.50;;;;;;;;;;5090214;28;20589;-57
2023/10/08 04:43:49;;;;;;;8.63;4.30;;;;;;;;;;5090414;28;20454;-58
2023/10/08 04:46:33;;;;;;;4.53;3.00;;;;;;;;;;5090538;28;20499;-56
2023/10/08 04:49:05;;;;;;;6.70;3.33;;;;;;;;;;5090211;28;20474;-59
2023/10/08 04:51:43;;;;;;;5.50;2.87;;;;;;;;;;5090116;28;20545;-56
2023/10/08 04:54:11;;;;;;;6.80;3.00;;;;;;;;;;5091678;28;20443;-56
2023/10/08 04:56:38;;;;;;;6.37;3.00;;;;;;;;;;5144192;22;20487;-86
2023/10/08 04:59:09;;;;;;;5.03;2.63;;;;;;;;;;5108071;27;20616;-86
2023/10/08 05:01:47;;;;;;;7.83;3.13;;;;;;;;;;5095991;27;20462;-87
2023/10/08 05:04:32;;;;;;;6.57;3.27;;;;;;;;;;5117622;27;20450;-87
2023/10/08 05:07:21;;;;;;;9.00;3.17;;;;;;;;;;5095926;27;20481;-87
2023/10/08 05:10:11;;;;;;;11.80;3.77;;;;;;;;;;5109579;22;20862;-55
2023/10/08 05:12:42;;;;;;;6.30;3.00;;;;;;;;;;5070388;28;20488;-55
2023/10/08 05:15:32;;;;;;;7.70;3.70;;;;;;;;;;5065343;28;20465;-56
2023/10/08 05:18:12;;;;;;;6.30;4.33;;;;;;;;;;5051069;28;20437;-57
2023/10/08 05:23:53;;;;;;;6.70;3.17;;;;;;;;;;5047846;28;20521;-57
2023/10/08 05:26:20;;;;;;;6.70;3.20;;;;;;;;;;5050530;28;20449;-57
2023/10/08 05:29:00;;;;;;;7.57;2.60;;;;;;;;;;5050766;28;20506;-55
2023/10/08 05:31:46;;;;;;;4.50;2.67;;;;;;;;;;5050396;28;20475;-56
2023/10/08 05:34:22;;;;;;;6.53;2.83;;;;;;;;;;5050640;28;20445;-54
2023/10/08 05:39:46;;;;;;;8.67;3.70;;;;;;;;;;5050352;28;20520;-56
2023/10/08 05:42:13;;;;;;;9.90;3.10;;;;;;;;;;5050193;28;20445;-56
2023/10/08 05:44:45;;;;;;;10.80;3.00;;;;;;;;;;5049391;28;20441;-56
2023/10/08 05:47:38;;;;;;;8.00;3.20;;;;;;;;;;5040845;28;20469;-56
2023/10/08 05:53:01;;;;;;;5.73;3.33;;;;;;;;;;5037624;28;20424;-58
2023/10/08 05:55:34;;;;;;;6.43;3.30;;;;;;;;;;5042882;28;20460;-56
2023/10/08 05:58:13;;;;;;;7.07;2.93;;;;;;;;;;5047865;28;20445;-57
2023/10/08 06:03:36;;;;;;;7.37;3.60;;;;;;;;;;5025981;28;20460;-57
2023/10/08 06:11:41;;;;;;;6.00;3.40;;;;;;;;;;5047350;28;20531;-54
2023/10/08 06:14:16;;;;;;;10.23;4.00;;;;;;;;;;5047939;28;20503;-55
2023/10/08 06:16:44;;;;;;;6.37;3.57;;;;;;;;;;5044384;28;20468;-56
2023/10/08 06:19:12;;;;;;;7.10;3.53;;;;;;;;;;5047373;28;20445;-56
2023/10/08 06:21:40;;;;;;;9.10;3.53;;;;;;;;;;5047030;28;20991;-56
2023/10/08 06:24:09;;;;;;;13.10;4.60;;;;;;;;;;5047584;28;20528;-56
2023/10/08 06:26:42;;;;;;;8.50;4.27;;;;;;;;;;5047129;28;20547;-56
2023/10/08 06:29:18;;;;;;;8.50;3.80;;;;;;;;;;5047509;28;20483;-56
2023/10/08 06:31:50;;;;;;;8.77;4.10;;;;;;;;;;5047109;28;20433;-57
2023/10/08 06:34:21;;;;;;;7.10;4.40;;;;;;;;;;5047232;28;20453;-56
2023/10/08 06:36:50;;;;;;;9.10;4.23;;;;;;;;;;5047003;28;20935;-56
2023/10/08 06:39:19;;;;;;;6.30;3.17;;;;;;;;;;5047379;28;20445;-56
2023/10/08 06:41:47;;;;;;;7.53;3.17;;;;;;;;;;5047400;28;20445;-57
2023/10/08 06:44:15;;;;;;;8.43;3.20;;;;;;;;;;5047167;28;20916;-54
2023/10/08 06:46:42;;;;;;;6.90;3.63;;;;;;;;;;5047410;28;20457;-55
2023/10/08 06:49:13;;;;;;;10.33;4.00;;;;;;;;;;5046108;28;20542;-54
2023/10/08 06:51:41;;;;;;;8.60;4.67;;;;;;;;;;5039851;28;20481;-55
2023/10/08 06:54:13;;;;;;;8.83;3.80;;;;;;;;;;5037929;28;20442;-56
2023/10/08 06:56:45;;;;;;;7.10;4.70;;;;;;;;;;5040568;28;20472;-55
2023/10/08 06:59:14;;;;;;;8.20;4.50;;;;;;;;;;5039078;28;20820;-54
2023/10/08 07:01:45;;;;;;;7.23;4.03;;;;;;;;;;5040049;28;20536;-54
2023/10/08 07:04:13;;;;;;;16.67;5.80;;;;;;;;;;5039113;28;20453;-55
2023/10/08 07:06:40;;;;;;;42.47;10.00;;;;;;;;;;5039664;28;20515;-54
2023/10/08 07:09:22;;;;;;;13.17;5.80;;;;;;;;;;5038211;28;20541;-54
2023/10/08 07:11:49;;;;;;;15.53;6.43;;;;;;;;;;5039679;28;20538;-55
2023/10/08 07:14:17;;;;;;;9.70;6.20;;;;;;;;;;5039790;28;20824;-55
2023/10/08 07:16:47;;;;;;;10.80;6.30;;;;;;;;;;5044012;28;20453;-54
2023/10/08 07:19:17;;;;;;;9.53;5.70;;;;;;;;;;5052897;28;20441;-55
2023/10/08 07:21:45;;;;;;;8.60;6.00;;;;;;;;;;5043445;28;20808;-57
2023/10/08 07:24:17;;;;;;;9.07;5.23;;;;;;;;;;5039896;28;20445;-55
2023/10/08 07:26:47;;;;;;;19.10;7.03;;;;;;;;;;5050659;28;20477;-55
2023/10/08 07:29:17;;;;;;;10.90;5.87;;;;;;;;;;5055221;28;20830;-55
2023/10/08 07:31:48;;;;;;;9.20;5.63;;;;;;;;;;5060256;28;21025;-54
2023/10/08 07:34:25;;;;;;;6.30;4.80;;;;;;;;;;5060321;28;20473;-55
2023/10/08 07:36:53;;;;;;;10.97;6.77;;;;;;;;;;5041063;28;20466;-55
2023/10/08 07:39:26;;;;;;;11.43;6.20;;;;;;;;;;5046894;28;20507;-55
2023/10/08 07:41:54;;;;;;;11.60;6.70;;;;;;;;;;5046469;28;20425;-54
2023/10/08 07:44:22;;;;;;;12.23;6.73;;;;;;;;;;5056010;28;20441;-54
2023/10/08 07:46:51;;;;;;;9.20;6.60;;;;;;;;;;5069218;28;20513;-55
2023/10/08 07:49:19;;;;;;;10.70;5.90;;;;;;;;;;5061433;28;20467;-56
2023/10/08 07:51:50;;;;;;;10.80;7.27;;;;;;;;;;5064431;28;20499;-55
2023/10/08 07:54:19;;;;;;;8.93;5.47;;;;;;;;;;5048694;28;20485;-54
2023/10/08 07:56:47;;;;;;;9.50;6.73;;;;;;;;;;5063116;28;20456;-56
2023/10/08 07:59:16;;;;;;;13.07;6.83;;;;;;;;;;5069182;28;20523;-54
2023/10/08 08:01:43;;;;;;;13.70;6.03;;;;;;;;;;5068007;28;20495;-54
2023/10/08 08:04:21;;;;;;;9.70;6.67;;;;;;;;;;5068775;28;20529;-56
2023/10/08 08:06:50;;;;;;;13.30;5.60;;;;;;;;;;5068728;28;20478;-54
2023/10/08 08:09:19;;;;;;;11.33;5.23;;;;;;;;;;5068603;28;20742;-55
2023/10/08 08:11:47;;;;;;;10.40;6.00;;;;;;;;;;5063693;28;20487;-54
2023/10/08 08:14:16;;;;;;;10.87;5.23;;;;;;;;;;5069176;28;20447;-54
2023/10/08 08:16:47;;;;;;;7.80;5.07;;;;;;;;;;5068207;28;20806;-56
2023/10/08 08:19:17;;;;;;;11.50;6.00;;;;;;;;;;5068859;28;20443;-54
2023/10/08 08:21:46;;;;;;;7.77;5.93;;;;;;;;;;5068216;28;20476;-55
2023/10/08 08:24:21;;;;;;;10.30;5.23;;;;;;;;;;5066578;28;20432;-55
2023/10/08 08:27:01;;;;;;;9.53;6.47;;;;;;;;;;5068320;28;20468;-55
2023/10/08 08:29:28;;;;;;;11.13;7.60;;;;;;;;;;5067924;28;20965;-55
2023/10/08 08:31:56;;;;;;;14.00;7.23;;;;;;;;;;5068299;28;20472;-55
2023/10/08 08:34:25;;;;;;;11.67;7.03;;;;;;;;;;5068336;28;20441;-55
2023/10/08 08:36:52;;;;;;;9.40;6.83;;;;;;;;;;5067978;28;20480;-54
2023/10/08 08:39:32;;;;;;;10.50;6.70;;;;;;;;;;5068235;28;20436;-54
2023/10/08 08:42:01;;;;;;;9.70;5.80;;;;;;;;;;5068171;28;20469;-54
2023/10/08 08:44:30;;;;;;;10.93;6.77;;;;;;;;;;5067587;28;20440;-55
2023/10/08 08:46:59;;;;;;;12.97;6.50;;;;;;;;;;5060158;28;20558;-54
2023/10/08 08:49:28;;;;;;;8.93;5.80;;;;;;;;;;5067887;28;20542;-55
2023/10/08 08:52:00;;;;;;;10.37;6.50;;;;;;;;;;5067567;28;20479;-54
2023/10/08 08:54:30;;;;;;;9.27;6.17;;;;;;;;;;5062847;28;21013;-54
2023/10/08 08:56:59;;;;;;;9.73;5.70;;;;;;;;;;5065655;28;20447;-55
2023/10/08 08:59:30;;;;;;;14.10;7.30;;;;;;;;;;5067534;28;20451;-54
2023/10/08 09:01:58;;;;;;;16.40;8.53;;;;;;;;;;5067902;28;20439;-54
2023/10/08 09:04:33;;;;;;;13.57;7.37;;;;;;;;;;5067614;28;20535;-53
2023/10/08 09:07:03;;;;;;;10.10;6.60;;;;;;;;;;5063173;28;20443;-55
2023/10/08 09:09:34;;;;;;;16.20;6.37;;;;;;;;;;5055577;28;20577;-54
2023/10/08 09:12:04;;;;;;;13.53;5.73;;;;;;;;;;5060857;28;20503;-56
2023/10/08 09:14:31;;;;;;;10.57;5.97;;;;;;;;;;5056116;28;20459;-53
2023/10/08 09:16:59;;;;;;;12.13;5.83;;;;;;;;;;5047317;28;20449;-53
2023/10/08 09:19:27;;;;;;;10.17;5.10;;;;;;;;;;5047850;28;20893;-56
2023/10/08 09:22:04;;;;;;;8.20;5.50;;;;;;;;;;5047314;28;20866;-54
2023/10/08 09:24:31;;;;;;;9.43;5.80;;;;;;;;;;5053004;28;20567;-55
2023/10/08 09:27:01;;;;;;;11.20;5.93;;;;;;;;;;5045504;28;20470;-54
2023/10/08 09:29:29;;;;;;;10.33;5.87;;;;;;;;;;5048206;28;20530;-55
2023/10/08 09:31:57;;;;;;;10.80;6.10;;;;;;;;;;5061307;28;20480;-55
2023/10/08 09:34:28;;;;;;;14.47;6.37;;;;;;;;;;5066727;28;20448;-55
2023/10/08 09:36:57;;;;;;;11.27;5.80;;;;;;;;;;5060332;28;20460;-55
2023/10/08 09:39:26;;;;;;;9.47;6.37;;;;;;;;;;5066383;28;20934;-55
2023/10/08 09:41:55;;;;;;;9.50;6.10;;;;;;;;;;5061778;28;20443;-56
2023/10/08 09:44:24;;;;;;;16.17;6.33;;;;;;;;;;5066866;28;20527;-54
2023/10/08 09:46:54;;;;;;;11.30;4.93;;;;;;;;;;5066573;28;20776;-54
2023/10/08 09:49:25;;;;;;;10.40;4.40;;;;;;;;;;5066224;28;20897;-55
2023/10/08 09:51:52;;;;;;;13.23;6.03;;;;;;;;;;5062373;28;20597;-53
2023/10/08 09:54:22;;;;;;;11.93;4.53;;;;;;;;;;5062843;28;20525;-53
2023/10/08 09:56:52;;;;;;;7.73;4.27;;;;;;;;;;5062055;28;20488;-55
2023/10/08 09:59:20;;;;;;;10.27;5.63;;;;;;;;;;5066272;28;20843;-55
2023/10/08 10:01:48;;;;;;;10.03;4.80;;;;;;;;;;5062292;28;20437;-55
2023/10/08 10:04:25;;;;;;;9.20;4.03;;;;;;;;;;5066176;28;20476;-55
2023/10/08 10:06:52;;;;;;;9.40;4.83;;;;;;;;;;5061606;28;20965;-54
2023/10/08 10:09:22;;;;;;;6.97;4.70;;;;;;;;;;5065138;28;20448;-54
2023/10/08 10:11:51;;;;;;;9.70;4.97;;;;;;;;;;5056950;28;20710;-55
2023/10/08 10:14:19;;;;;;;6.57;4.10;;;;;;;;;;5049613;28;21132;-55
2023/10/08 10:16:50;;;;;;;9.57;4.50;;;;;;;;;;5061247;28;20554;-55
2023/10/08 10:19:23;;;;;;;9.83;4.97;;;;;;;;;;5063272;28;20469;-56
2023/10/08 10:21:50;;;;;;;7.47;4.83;;;;;;;;;;5063834;28;20460;-53
2023/10/08 10:24:24;;;;;;;11.10;4.90;;;;;;;;;;5057722;28;20444;-56
2023/10/08 10:26:53;;;;;;;12.70;5.27;;;;;;;;;;5062958;28;20538;-56
2023/10/08 10:29:22;;;;;;;8.33;4.50;;;;;;;;;;5062138;28;20451;-55
2023/10/08 10:31:52;;;;;;;8.67;4.40;;;;;;;;;;5058659;28;20468;-53
2023/10/08 10:34:21;;;;;;;13.40;6.00;;;;;;;;;;5066047;28;20791;-56
2023/10/08 10:36:49;;;;;;;8.50;5.13;;;;;;;;;;5062736;28;20513;-54
2023/10/08 10:39:25;;;;;;;9.30;4.43;;;;;;;;;;5066277;28;20480;-54
2023/10/08 10:41:57;;;;;;;8.63;4.43;;;;;;;;;;5066200;28;20440;-54
2023/10/08 10:44:24;;;;;;;11.23;5.03;;;;;;;;;;5065947;28;20484;-53
2023/10/08 10:46:52;;;;;;;8.70;4.70;;;;;;;;;;5066513;28;20543;-54
2023/10/08 10:49:21;;;;;;;13.37;4.63;;;;;;;;;;5066662;28;20603;-54
2023/10/08 10:51:52;;;;;;;7.90;4.77;;;;;;;;;;5069655;28;20472;-54
2023/10/08 10:54:23;;;;;;;8.97;5.00;;;;;;;;;;5064003;28;20441;-54
2023/10/08 10:57:03;;;;;;;11.20;4.40;;;;;;;;;;5065764;28;20517;-55
2023/10/08 10:59:36;;;;;;;9.37;4.13;;;;;;;;;;5061694;28;20448;-54
2023/10/08 11:02:08;;;;;;;16.37;4.80;;;;;;;;;;5037033;28;20457;-56
2023/10/08 11:04:47;;;;;;;7.20;4.63;;;;;;;;;;5046717;28;20487;-54
2023/10/08 11:07:16;;;;;;;18.67;5.97;;;;;;;;;;5046916;28;20435;-56
2023/10/08 11:09:44;;;;;;;9.80;5.63;;;;;;;;;;5048528;28;20444;-54
2023/10/08 11:12:12;;;;;;;7.97;4.13;;;;;;;;;;5041212;28;20482;-56
2023/10/08 11:14:42;;;;;;;9.50;5.07;;;;;;;;;;5051058;28;20939;-54
2023/10/08 11:17:17;;;;;;;11.70;5.93;;;;;;;;;;5045170;28;20948;-54
2023/10/08 11:19:46;;;;;;;11.17;4.20;;;;;;;;;;5057255;28;20554;-56
2023/10/08 11:22:17;;;;;;;10.90;4.97;;;;;;;;;;5046404;28;20972;-55
2023/10/08 11:24:47;;;;;;;14.20;4.57;;;;;;;;;;5103961;22;21044;-60
2023/10/08 11:27:28;;;;;;;8.00;4.73;;;;;;;;;;5045798;28;20478;-59
2023/10/08 11:29:57;;;;;;;12.33;4.67;;;;;;;;;;5044600;28;20524;-59
2023/10/08 11:32:26;;;;;;;12.23;4.57;;;;;;;;;;5046971;28;21021;-57
2023/10/08 11:34:59;;;;;;;10.80;4.70;;;;;;;;;;5032284;28;20454;-57
2023/10/08 11:37:29;;;;;;;13.00;5.57;;;;;;;;;;5035237;28;20446;-60
2023/10/08 11:39:58;;;;;;;12.97;4.30;;;;;;;;;;5030659;28;20584;-58
2023/10/08 11:42:43;;;;;;;9.53;5.67;;;;;;;;;;5033494;28;20521;-58
2023/10/08 11:45:18;;;;;;;10.33;5.23;;;;;;;;;;5031826;28;20512;-59
2023/10/08 11:47:48;;;;;;;10.70;4.83;;;;;;;;;;5031752;28;20428;-59
2023/10/08 11:50:19;;;;;;;9.03;4.70;;;;;;;;;;5032826;28;20524;-60
2023/10/08 11:52:46;;;;;;;9.13;5.07;;;;;;;;;;5034990;28;20477;-58
2023/10/08 11:55:18;;;;;;;8.83;4.10;;;;;;;;;;5045161;28;20506;-59
2023/10/08 11:57:48;;;;;;;8.60;4.53;;;;;;;;;;5048337;28;20866;-58
2023/10/08 12:00:19;;;;;;;7.13;4.67;;;;;;;;;;5047768;28;20475;-57
2023/10/08 12:02:47;;;;;;;9.37;5.40;;;;;;;;;;5048904;28;20461;-54
2023/10/08 12:05:19;;;;;;;9.03;4.13;;;;;;;;;;5048855;28;20433;-56
2023/10/08 12:07:47;;;;;;;7.60;3.87;;;;;;;;;;5048714;28;20536;-58
2023/10/08 12:10:16;;;;;;;12.23;4.83;;;;;;;;;;5035274;28;20434;-57
2023/10/08 12:12:45;;;;;;;8.60;4.17;;;;;;;;;;5034047;28;20839;-57
2023/10/08 12:15:19;;;;;;;9.27;4.50;;;;;;;;;;5030191;28;20446;-57
2023/10/08 12:18:08;;;;;;;11.53;4.83;;;;;;;;;;5043637;28;20441;-55
2023/10/08 12:20:37;;;;;;;9.13;4.60;;;;;;;;;;5021238;28;20525;-56
2023/10/08 12:23:05;;;;;;;11.70;5.13;;;;;;;;;;5040137;28;20441;-55
2023/10/08 12:25:33;;;;;;;12.90;4.90;;;;;;;;;;5066077;28;20459;-57
2023/10/08 12:28:03;;;;;;;11.17;5.70;;;;;;;;;;5067239;28;20636;-56
2023/10/08 12:30:41;;;;;;;10.67;4.20;;;;;;;;;;5067815;28;20843;-57
2023/10/08 12:33:12;;;;;;;13.43;4.97;;;;;;;;;;5066644;28;20609;-56
2023/10/08 12:35:40;;;;;;;13.00;4.90;;;;;;;;;;5066928;28;20540;-56
2023/10/08 12:38:08;;;;;;;7.07;4.70;;;;;;;;;;5067237;28;20514;-56
2023/10/08 12:40:47;;;;;;;9.30;4.43;;;;;;;;;;5066345;28;20441;-58
2023/10/08 12:43:18;;;;;;;6.27;4.80;;;;;;;;;;5060869;28;20448;-57
2023/10/08 12:45:51;;;;;;;14.47;6.20;;;;;;;;;;5065908;28;20452;-56
2023/10/08 12:48:21;;;;;;;15.30;4.80;;;;;;;;;;5066261;28;20445;-59
2023/10/08 12:50:52;;;;;;;9.50;4.93;;;;;;;;;;5066554;28;20535;-57
2023/10/08 12:53:23;;;;;;;10.47;4.97;;;;;;;;;;5063085;28;20485;-55
2023/10/08 12:55:53;;;;;;;9.17;4.73;;;;;;;;;;5067462;28;20820;-55
2023/10/08 12:58:23;;;;;;;8.13;4.80;;;;;;;;;;5067628;28;20815;-56
2023/10/08 13:00:57;;;;;;;9.23;5.27;;;;;;;;;;5068163;28;20943;-58
2023/10/08 13:03:25;;;;;;;7.27;4.30;;;;;;;;;;5067249;28;20468;-56
2023/10/08 13:05:53;;;;;;;13.60;5.47;;;;;;;;;;5057479;28;20464;-58
2023/10/08 13:08:21;;;;;;;9.57;4.80;;;;;;;;;;5058591;28;20459;-55
2023/10/08 13:10:48;;;;;;;13.30;4.83;;;;;;;;;;5067125;28;20502;-56
2023/10/08 13:13:15;;;;;;;10.77;4.67;;;;;;;;;;5066633;28;20484;-56
2023/10/08 13:15:43;;;;;;;12.73;4.70;;;;;;;;;;5055309;28;20444;-54
2023/10/08 13:18:10;;;;;;;12.30;5.93;;;;;;;;;;5050773;28;20507;-54
2023/10/08 13:20:41;;;;;;;10.10;5.20;;;;;;;;;;5051240;28;20855;-57
2023/10/08 13:23:09;;;;;;;9.27;4.97;;;;;;;;;;5052340;28;20473;-54
2023/10/08 13:25:39;;;;;;;12.07;4.97;;;;;;;;;;5049290;28;20444;-56
2023/10/08 13:28:09;;;;;;;9.27;5.83;;;;;;;;;;5059867;28;20452;-53
2023/10/08 13:30:37;;;;;;;12.40;4.87;;;;;;;;;;5051584;28;20504;-56
2023/10/08 13:33:04;;;;;;;12.70;4.83;;;;;;;;;;5063388;28;21058;-54
2023/10/08 13:35:35;;;;;;;10.00;4.47;;;;;;;;;;5060769;28;20444;-54
2023/10/08 13:38:09;;;;;;;12.53;5.00;;;;;;;;;;5062328;28;20448;-54
2023/10/08 13:40:43;;;;;;;8.90;4.40;;;;;;;;;;5051144;28;20476;-56
2023/10/08 13:43:11;;;;;;;11.03;4.83;;;;;;;;;;5047867;28;20514;-55
2023/10/08 13:45:39;;;;;;;8.80;4.27;;;;;;;;;;5056319;28;20437;-53
2023/10/08 13:48:10;;;;;;;10.43;4.60;;;;;;;;;;5065706;28;20930;-55
2023/10/08 13:50:37;;;;;;;9.63;4.00;;;;;;;;;;5066381;28;20954;-54
2023/10/08 13:53:07;;;;;;;10.83;4.13;;;;;;;;;;5063561;28;20572;-55
2023/10/08 13:55:35;;;;;;;8.63;4.00;;;;;;;;;;5066611;28;20981;-56
2023/10/08 13:58:02;;;;;;;7.40;4.33;;;;;;;;;;5063087;28;20447;-55
2023/10/08 14:00:36;;;;;;;8.10;4.70;;;;;;;;;;5064240;28;20496;-54
2023/10/08 14:03:07;;;;;;;8.50;3.67;;;;;;;;;;5066292;28;20441;-54
2023/10/08 14:05:35;;;;;;;6.77;4.10;;;;;;;;;;5066420;28;20448;-56
2023/10/08 14:08:07;;;;;;;8.57;3.80;;;;;;;;;;5061411;28;20440;-54
2023/10/08 14:10:36;;;;;;;11.23;4.97;;;;;;;;;;5059155;28;20447;-54
2023/10/08 14:13:03;;;;;;;9.90;4.17;;;;;;;;;;5064671;28;20565;-54
2023/10/08 14:15:32;;;;;;;10.90;4.63;;;;;;;;;;5065832;28;20466;-54
2023/10/08 14:18:04;;;;;;;10.73;4.40;;;;;;;;;;5066758;28;20929;-55
2023/10/08 14:20:32;;;;;;;9.20;3.80;;;;;;;;;;5059006;28;20527;-54
2023/10/08 14:23:02;;;;;;;9.00;4.80;;;;;;;;;;5057208;28;20505;-54
2023/10/08 14:25:33;;;;;;;9.23;6.60;;;;;;;;;;5066133;28;20494;-54
2023/10/08 14:28:06;;;;;;;7.33;4.83;;;;;;;;;;5057206;28;20452;-56
2023/10/08 14:30:40;;;;;;;8.10;3.80;;;;;;;;;;5051453;28;20445;-55
2023/10/08 14:33:12;;;;;;;8.70;3.77;;;;;;;;;;5052441;28;20482;-53
2023/10/08 14:43:55;;;;;;;8.00;3.50;;;;;;;;;;5056965;28;20533;-54
2023/10/08 14:46:23;;;;;;;8.77;4.60;;;;;;;;;;5055772;28;20819;-54
2023/10/08 14:48:52;;;;;;;8.00;3.23;;;;;;;;;;5053532;28;20444;-54
2023/10/08 14:51:19;;;;;;;9.40;4.07;;;;;;;;;;5055149;28;20445;-55
2023/10/08 14:53:47;;;;;;;11.20;4.73;;;;;;;;;;5057428;28;20541;-54
2023/10/08 14:56:15;;;;;;;10.60;4.07;;;;;;;;;;5055585;28;21045;-54
2023/10/08 14:58:43;;;;;;;9.10;3.80;;;;;;;;;;5057426;28;20448;-55
2023/10/08 15:01:13;;;;;;;9.17;4.43;;;;;;;;;;5068581;28;20474;-55
2023/10/08 15:03:40;;;;;;;9.93;4.70;;;;;;;;;;5065976;28;20464;-55
2023/10/08 15:06:10;;;;;;;7.20;3.60;;;;;;;;;;5072508;28;20525;-55
2023/10/08 15:08:37;;;;;;;9.70;4.30;;;;;;;;;;5071582;28;20445;-54
2023/10/08 15:11:06;;;;;;;8.47;5.20;;;;;;;;;;5053198;28;20480;-54
2023/10/08 15:13:38;;;;;;;8.33;4.87;;;;;;;;;;5059052;28;20488;-54
2023/10/08 15:16:06;;;;;;;12.97;4.77;;;;;;;;;;5059814;28;20433;-53
2023/10/08 15:18:41;;;;;;;12.00;4.70;;;;;;;;;;5057289;28;20525;-55
2023/10/08 15:21:09;;;;;;;11.50;4.40;;;;;;;;;;5056632;28;20795;-56
2023/10/08 15:23:37;;;;;;;9.37;4.40;;;;;;;;;;5065505;28;20460;-54
2023/10/08 15:26:04;;;;;;;14.20;11.00;;;;;;;;;;5060466;28;20528;-55
2023/10/08 15:28:32;;;;;;;11.67;10.00;;;;;;;;;;5069694;28;20956;-55
2023/10/08 15:31:00;;;;;;;10.50;6.53;;;;;;;;;;5068469;28;20529;-55